Time;durP1;ratioP1;P1;durP2;ratioP2;P2;SDS_P1;SDS_P2;PMS_P1;PMS_P2;Temp;Humidity;BMP_temperature;BMP_pressure;BME280_temperature;BME280_humidity;BME280_pressure;Samples;Min_cycle;Max_cycle;Signal;HPM_P1;HPM_P2
2021/12/12 00:00:28;;;;;;;15.63;9.43;;;;;;;0.62;89.99;96422.19;4843486;29;20048;-57
2021/12/12 00:03:05;;;;;;;16.25;9.35;;;;;;;0.79;89.67;96436.13;4843479;29;20076;-58
2021/12/12 00:05:42;;;;;;;16.00;9.55;;;;;;;0.57;90.62;96433.59;4840093;29;20136;-56
2021/12/12 00:08:10;;;;;;;17.48;9.90;;;;;;;0.92;88.73;96434.88;4843850;29;20133;-55
2021/12/12 00:10:41;;;;;;;16.13;9.45;;;;;;;0.67;90.00;96444.31;4842270;29;20125;-57
2021/12/12 00:13:14;;;;;;;16.40;10.05;;;;;;;0.76;89.29;96436.66;4829743;29;20232;-58
2021/12/12 00:15:41;;;;;;;15.85;9.70;;;;;;;0.71;90.30;96444.59;4840475;29;20525;-54
2021/12/12 00:18:09;;;;;;;15.82;9.23;;;;;;;0.60;90.89;96454.38;4829542;29;20057;-58
2021/12/12 00:20:36;;;;;;;14.80;8.50;;;;;;;0.92;89.89;96457.00;4841605;29;20506;-57
2021/12/12 00:23:06;;;;;;;14.50;9.70;;;;;;;0.94;89.98;96472.69;4842879;29;20137;-54
2021/12/12 00:25:40;;;;;;;18.00;9.60;;;;;;;0.62;90.95;96468.25;4840622;29;20042;-56
2021/12/12 00:28:09;;;;;;;14.55;8.65;;;;;;;0.65;91.24;96465.09;4842176;29;20531;-56
2021/12/12 00:30:37;;;;;;;14.63;9.50;;;;;;;0.58;92.26;96471.66;4842281;29;20044;-57
2021/12/12 00:33:05;;;;;;;15.25;9.57;;;;;;;0.55;92.08;96475.63;4836961;29;20046;-55
2021/12/12 00:35:32;;;;;;;16.02;8.73;;;;;;;0.44;92.82;96476.63;4842947;29;20124;-56
2021/12/12 00:38:07;;;;;;;15.38;9.13;;;;;;;0.94;90.93;96478.03;4842891;29;20052;-52
2021/12/12 00:40:37;;;;;;;13.88;9.05;;;;;;;0.70;91.22;96474.94;4838406;29;20153;-55
2021/12/12 00:43:20;;;;;;;16.08;9.15;;;;;;;0.59;92.67;96467.97;4841751;29;20150;-55
2021/12/12 00:45:52;;;;;;;15.68;9.68;;;;;;;0.66;92.24;96469.34;4839272;29;20053;-52
2021/12/12 00:48:19;;;;;;;14.95;8.77;;;;;;;0.36;93.10;96464.59;4834873;29;20052;-58
2021/12/12 00:50:46;;;;;;;15.02;8.90;;;;;;;0.76;92.37;96478.47;4841671;29;20540;-58
2021/12/12 00:53:14;;;;;;;16.95;9.73;;;;;;;0.66;92.33;96473.88;4841752;29;20137;-56
2021/12/12 00:55:44;;;;;;;14.30;9.15;;;;;;;0.88;91.48;96477.22;4837821;29;20077;-56
2021/12/12 00:58:14;;;;;;;16.15;9.82;;;;;;;0.88;91.84;96473.75;4839642;29;20049;-53
2021/12/12 01:00:49;;;;;;;14.27;9.63;;;;;;;0.68;92.80;96474.41;4841526;29;20034;-54
2021/12/12 01:03:21;;;;;;;16.23;10.30;;;;;;;0.78;93.04;96479.81;4842307;29;20446;-56
2021/12/12 01:05:50;;;;;;;15.10;9.50;;;;;;;0.42;94.89;96490.19;4837365;29;20058;-53
2021/12/12 01:08:18;;;;;;;15.43;9.10;;;;;;;0.32;95.47;96484.75;4842973;29;20041;-57
2021/12/12 01:10:53;;;;;;;16.35;9.93;;;;;;;0.73;94.20;96493.09;4842600;29;20080;-57
2021/12/12 01:13:22;;;;;;;16.05;10.15;;;;;;;0.93;93.10;96489.75;4837250;29;20038;-55
2021/12/12 01:16:05;;;;;;;14.45;9.20;;;;;;;0.56;95.60;96490.56;4840737;29;20534;-56
2021/12/12 01:18:38;;;;;;;14.65;9.45;;;;;;;0.57;95.76;96497.50;4838055;29;20069;-56
2021/12/12 01:21:11;;;;;;;15.85;9.40;;;;;;;0.63;94.75;96498.34;4839593;29;20521;-55
2021/12/12 01:23:44;;;;;;;16.35;9.38;;;;;;;0.58;94.83;96500.94;4840897;29;20132;-56
2021/12/12 01:26:12;;;;;;;15.95;9.63;;;;;;;0.75;93.52;96501.63;4837305;29;20424;-53
2021/12/12 01:28:43;;;;;;;16.88;10.18;;;;;;;0.83;94.22;96509.13;4837315;29;20549;-55
2021/12/12 01:31:24;;;;;;;15.80;9.65;;;;;;;0.79;94.78;96516.03;4842656;29;20148;-54
2021/12/12 01:33:59;;;;;;;16.50;10.32;;;;;;;0.43;95.72;96513.09;4840866;29;20588;-53
2021/12/12 01:36:45;;;;;;;14.88;9.30;;;;;;;0.52;95.73;96521.44;4841107;29;20136;-55
2021/12/12 01:39:13;;;;;;;16.85;11.15;;;;;;;0.88;93.47;96508.38;4840705;29;20144;-54
2021/12/12 01:42:05;;;;;;;15.65;9.75;;;;;;;0.90;93.54;96519.56;4828746;29;20232;-55
2021/12/12 01:45:00;;;;;;;14.88;9.73;;;;;;;0.83;93.68;96524.31;4836164;29;20124;-57
2021/12/12 01:47:33;;;;;;;16.52;10.30;;;;;;;1.06;92.52;96525.81;4840170;29;20057;-56
2021/12/12 01:50:03;;;;;;;;;;;;;;;0.66;95.07;96530.59;4840205;29;20046;-53
2021/12/12 01:52:31;;;;;;;14.93;8.93;;;;;;;0.65;95.78;96526.34;4836741;29;20019;-58
2021/12/12 01:55:22;;;;;;;16.00;9.77;;;;;;;0.80;94.26;96522.16;4831590;29;20050;-55
2021/12/12 01:57:52;;;;;;;16.45;10.07;;;;;;;1.12;92.30;96522.91;4841094;29;20046;-56
2021/12/12 02:00:44;;;;;;;16.10;10.32;;;;;;;1.07;93.47;96522.91;4841373;29;20058;-57
2021/12/12 02:03:14;;;;;;;17.17;9.77;;;;;;;0.98;93.34;96523.66;4849861;23;20054;-55
2021/12/12 02:05:42;;;;;;;15.40;9.60;;;;;;;1.31;92.62;96533.97;4852267;29;20102;-55
2021/12/12 02:08:14;;;;;;;15.85;10.13;;;;;;;0.99;93.58;96526.03;4855691;29;20118;-57
2021/12/12 02:10:47;;;;;;;17.23;10.27;;;;;;;0.75;94.09;96530.94;4848125;29;20046;-58
2021/12/12 02:13:17;;;;;;;16.40;10.35;;;;;;;0.70;95.22;96537.00;4846783;29;20545;-58
2021/12/12 02:15:46;;;;;;;17.25;10.38;;;;;;;0.90;93.64;96532.91;4854403;29;20046;-58
2021/12/12 02:18:17;;;;;;;15.57;9.77;;;;;;;0.89;93.99;96536.63;4853932;29;20076;-59
2021/12/12 02:21:05;;;;;;;17.80;10.82;;;;;;;0.64;95.02;96539.88;4853271;29;20050;-53
2021/12/12 02:37:07;;;;;;;18.83;11.00;;;;;;;0.99;93.60;96535.91;4849030;29;20060;-57
2021/12/12 02:39:36;;;;;;;17.85;10.38;;;;;;;1.04;92.79;96534.06;4843425;29;20493;-50
2021/12/12 02:42:10;;;;;;;18.77;11.02;;;;;;;1.08;93.25;96537.03;4842814;29;20077;-58
2021/12/12 02:44:39;;;;;;;17.50;11.02;;;;;;;1.08;92.78;96542.34;4851066;29;20140;-50
2021/12/12 02:47:13;;;;;;;16.67;10.57;;;;;;;1.01;92.53;96529.25;4844168;29;20129;-52
2021/12/12 02:49:56;;;;;;;19.13;10.30;;;;;;;0.81;94.19;96529.88;4852715;29;20058;-53
2021/12/12 02:52:28;;;;;;;19.02;10.73;;;;;;;1.22;92.06;96546.16;4847899;29;20053;-54
2021/12/12 02:55:00;;;;;;;17.75;10.43;;;;;;;1.10;92.78;96553.53;4841199;29;20677;-54
2021/12/12 02:57:27;;;;;;;18.90;11.30;;;;;;;1.37;91.21;96556.13;4848835;29;20049;-52
2021/12/12 02:59:55;;;;;;;19.48;11.13;;;;;;;1.29;91.77;96554.75;4854839;29;20144;-58
2021/12/12 03:02:29;;;;;;;17.55;11.10;;;;;;;1.08;92.63;96550.34;4849111;29;20385;-57
2021/12/12 03:04:59;;;;;;;17.05;10.50;;;;;;;1.15;92.15;96553.59;4850703;29;20081;-58
2021/12/12 03:07:28;;;;;;;19.77;10.65;;;;;;;1.10;92.64;96538.34;4848185;29;20081;-59
2021/12/12 03:09:58;;;;;;;19.00;11.50;;;;;;;1.20;92.28;96545.63;4849346;29;20068;-59
2021/12/12 03:12:31;;;;;;;17.50;10.38;;;;;;;1.13;92.46;96556.50;4847203;29;20041;-59
2021/12/12 03:15:13;;;;;;;18.98;11.07;;;;;;;1.36;91.34;96557.97;4843797;29;20049;-58
2021/12/12 03:17:43;;;;;;;15.95;9.63;;;;;;;1.25;92.08;96558.19;4847405;29;20049;-58
2021/12/12 03:20:23;;;;;;;17.10;10.90;;;;;;;1.00;93.84;96554.28;4850516;29;20038;-58
2021/12/12 03:22:57;;;;;;;17.35;10.32;;;;;;;1.11;93.05;96560.50;4850034;29;20495;-59
2021/12/12 03:25:24;;;;;;;15.77;9.88;;;;;;;0.90;93.16;96562.19;4839655;29;20465;-59
2021/12/12 03:27:53;;;;;;;18.95;10.38;;;;;;;1.06;93.67;96558.59;4848744;29;20037;-59
2021/12/12 03:30:20;;;;;;;15.88;10.07;;;;;;;1.00;93.77;96553.47;4852325;29;20041;-59
2021/12/12 03:32:47;;;;;;;18.08;9.95;;;;;;;0.59;95.21;96561.97;4852324;29;20133;-59
2021/12/12 03:35:15;;;;;;;16.67;9.85;;;;;;;0.78;95.03;96567.72;4853773;29;20084;-59
2021/12/12 03:37:42;;;;;;;16.48;9.90;;;;;;;0.69;94.93;96564.72;4849459;29;20069;-58
2021/12/12 03:40:18;;;;;;;14.68;9.70;;;;;;;1.05;93.31;96553.53;4848951;29;20138;-59
2021/12/12 03:42:48;;;;;;;17.52;10.20;;;;;;;0.94;92.72;96557.97;4847979;29;20046;-59
2021/12/12 03:45:17;;;;;;;15.40;8.88;;;;;;;0.60;94.84;96558.22;4855350;29;20526;-59
2021/12/12 03:47:56;;;;;;;16.15;10.00;;;;;;;0.94;92.99;96557.97;4846252;29;20048;-58
2021/12/12 03:50:30;;;;;;;16.77;8.98;;;;;;;1.39;92.37;96562.78;4850171;29;20054;-59
2021/12/12 03:52:57;;;;;;;16.63;9.55;;;;;;;1.11;91.95;96561.31;4849229;29;20140;-58
2021/12/12 03:55:26;;;;;;;16.50;9.40;;;;;;;1.38;91.43;96549.72;4848683;29;20085;-53
2021/12/12 03:57:54;;;;;;;16.58;9.75;;;;;;;1.41;90.90;96557.22;4847396;29;20110;-59
2021/12/12 04:00:28;;;;;;;15.07;9.98;;;;;;;1.12;92.04;96562.91;4855631;29;20077;-58
2021/12/12 04:02:56;;;;;;;16.60;8.80;;;;;;;1.26;92.19;96570.44;4846513;29;20041;-58
2021/12/12 04:05:24;;;;;;;15.75;10.10;;;;;;;1.53;90.86;96565.81;4855352;29;20114;-59
2021/12/12 04:07:52;;;;;;;14.38;8.98;;;;;;;1.63;89.68;96562.41;4840927;29;20136;-59
2021/12/12 04:10:20;;;;;;;17.75;10.15;;;;;;;1.37;90.58;96566.81;4845406;29;20422;-56
2021/12/12 04:12:48;;;;;;;15.82;8.95;;;;;;;1.22;91.56;96570.16;4848906;29;20220;-58
2021/12/12 04:15:16;;;;;;;16.83;10.13;;;;;;;1.23;91.73;96562.97;4841202;29;20054;-59
2021/12/12 04:17:44;;;;;;;14.70;9.55;;;;;;;1.30;91.11;96568.88;4848329;29;20522;-58
2021/12/12 04:20:20;;;;;;;15.35;9.85;;;;;;;1.20;91.76;96569.59;4850554;29;20084;-59
2021/12/12 04:22:47;;;;;;;15.48;9.93;;;;;;;0.98;93.13;96587.59;4845555;29;20068;-58
2021/12/12 04:25:14;;;;;;;17.63;9.98;;;;;;;1.13;92.11;96569.03;4842155;29;20073;-59
2021/12/12 04:27:43;;;;;;;17.23;10.13;;;;;;;1.26;91.46;96587.25;4849504;29;20125;-53
2021/12/12 04:30:11;;;;;;;14.18;8.68;;;;;;;0.83;93.25;96589.06;4848561;29;20045;-52
2021/12/12 04:32:40;;;;;;;15.65;9.00;;;;;;;0.94;92.92;96592.59;4848248;29;20069;-53
2021/12/12 04:35:17;;;;;;;16.23;9.90;;;;;;;1.37;91.24;96593.47;4848439;29;20050;-53
2021/12/12 04:37:47;;;;;;;15.57;9.18;;;;;;;1.14;92.13;96608.75;4844235;29;20082;-50
2021/12/12 04:40:18;;;;;;;17.65;9.65;;;;;;;1.69;90.18;96608.56;4849103;29;20094;-51
2021/12/12 04:42:48;;;;;;;17.80;10.25;;;;;;;1.83;88.92;96609.72;4856456;29;20137;-53
2021/12/12 04:45:50;;;;;;;14.63;8.88;;;;;;;1.33;91.41;96611.84;4850569;29;20065;-53
2021/12/12 04:51:22;;;;;;;16.67;10.02;;;;;;;1.61;89.95;96624.00;4856001;29;20129;-52
2021/12/12 04:53:54;;;;;;;14.77;9.20;;;;;;;1.87;87.80;96621.47;4857741;29;20049;-52
2021/12/12 04:56:35;;;;;;;16.63;9.25;;;;;;;1.22;91.42;96626.13;4854423;29;20056;-54
2021/12/12 04:59:09;;;;;;;17.80;9.63;;;;;;;0.89;92.65;96627.22;4847341;29;20038;-50
2021/12/12 05:02:07;;;;;;;17.23;9.80;;;;;;;1.17;92.17;96628.78;4856987;29;20115;-52
2021/12/12 05:04:46;;;;;;;16.85;9.73;;;;;;;0.86;93.20;96630.38;4855500;29;20042;-52
2021/12/12 05:07:22;;;;;;;15.90;9.20;;;;;;;1.09;92.88;96638.03;4844100;29;20038;-54
2021/12/12 05:09:58;;;;;;;16.20;9.65;;;;;;;1.27;92.37;96641.34;4855961;29;20054;-53
2021/12/12 05:12:50;;;;;;;15.55;8.95;;;;;;;1.32;91.35;96641.41;4844820;29;20041;-50
2021/12/12 05:15:51;;;;;;;14.35;9.07;;;;;;;1.01;92.61;96640.34;4841676;29;20058;-57
2021/12/12 05:18:27;;;;;;;15.88;9.68;;;;;;;0.95;92.06;96647.50;4844413;29;20073;-59
2021/12/12 05:20:59;;;;;;;13.85;8.63;;;;;;;0.95;92.43;96647.50;4853455;29;20048;-55
2021/12/12 05:23:29;;;;;;;17.15;9.77;;;;;;;1.20;91.21;96656.75;4844861;29;20133;-51
2021/12/12 05:26:04;;;;;;;14.13;8.65;;;;;;;1.36;89.92;96666.47;4842025;29;20050;-54
2021/12/12 05:28:36;;;;;;;13.75;8.05;;;;;;;1.30;90.05;96663.00;4850851;29;20181;-50
2021/12/12 05:31:06;;;;;;;14.18;8.68;;;;;;;1.05;91.04;96652.13;4842795;29;20077;-52
2021/12/12 05:33:34;;;;;;;14.20;8.48;;;;;;;0.97;92.40;96663.22;4854008;29;20117;-49
2021/12/12 05:36:02;;;;;;;13.40;8.57;;;;;;;0.82;92.30;96663.91;4856893;29;20132;-49
2021/12/12 05:38:30;;;;;;;13.65;7.93;;;;;;;1.19;91.28;96665.81;4853335;29;20394;-58
2021/12/12 05:40:57;;;;;;;14.70;8.70;;;;;;;1.44;88.95;96667.91;4850380;29;20074;-50
2021/12/12 05:43:25;;;;;;;14.43;8.02;;;;;;;1.66;88.18;96652.59;4849691;29;20045;-48
2021/12/12 05:45:53;;;;;;;13.77;7.45;;;;;;;1.35;88.82;96659.56;4856658;29;20148;-49
2021/12/12 05:48:21;;;;;;;12.93;8.43;;;;;;;1.35;89.13;96656.88;4845019;29;20436;-52
2021/12/12 05:50:52;;;;;;;13.93;8.80;;;;;;;1.17;90.19;96655.44;4842613;29;20128;-54
2021/12/12 05:53:20;;;;;;;12.45;8.05;;;;;;;0.87;90.07;96658.63;4855511;29;20131;-55
2021/12/12 05:55:49;;;;;;;12.85;8.02;;;;;;;0.92;91.13;96664.81;4846362;29;20098;-52
2021/12/12 05:58:20;;;;;;;12.15;7.30;;;;;;;1.15;89.82;96658.34;4846966;29;20060;-51
2021/12/12 06:00:58;;;;;;;12.50;7.07;;;;;;;1.14;89.62;96667.41;4849260;29;20132;-51
2021/12/12 06:03:28;;;;;;;12.45;7.70;;;;;;;0.77;90.81;96671.84;4854965;29;20129;-52
2021/12/12 06:05:58;;;;;;;12.43;6.95;;;;;;;0.88;90.45;96678.88;4845120;29;20056;-50
2021/12/12 06:08:26;;;;;;;11.35;7.05;;;;;;;1.05;89.70;96679.56;4847985;29;20045;-54
2021/12/12 06:10:55;;;;;;;14.32;7.70;;;;;;;0.90;89.89;96671.44;4855401;29;20133;-52
2021/12/12 06:13:23;;;;;;;11.32;6.82;;;;;;;1.04;89.09;96677.97;4845990;29;20148;-54
2021/12/12 06:15:53;;;;;;;11.90;6.55;;;;;;;1.08;89.01;96689.72;4844531;29;20132;-58
2021/12/12 06:18:23;;;;;;;12.35;7.18;;;;;;;0.97;89.35;96687.22;4859290;29;20129;-57
2021/12/12 06:20:51;;;;;;;12.13;6.70;;;;;;;1.05;89.43;96690.22;4857917;29;20057;-58
2021/12/12 06:23:18;;;;;;;9.98;6.43;;;;;;;1.03;88.34;96695.00;4858426;29;20136;-58
2021/12/12 06:25:47;;;;;;;13.60;7.10;;;;;;;1.01;88.89;96693.63;4842711;29;20477;-58
2021/12/12 06:28:35;;;;;;;11.63;6.43;;;;;;;0.88;88.90;96690.34;4841856;29;20125;-58
2021/12/12 06:31:03;;;;;;;10.63;6.30;;;;;;;0.99;88.57;96690.44;4841771;29;20483;-58
2021/12/12 06:33:31;;;;;;;11.70;6.63;;;;;;;0.91;88.39;96692.50;4858677;29;20484;-58
2021/12/12 06:35:58;;;;;;;11.23;6.25;;;;;;;0.83;89.05;96700.13;4858788;29;20049;-57
2021/12/12 06:38:26;;;;;;;10.35;6.35;;;;;;;0.92;88.45;96702.09;4851740;29;20065;-59
2021/12/12 06:40:54;;;;;;;10.77;6.28;;;;;;;0.90;88.77;96714.06;4855000;29;20133;-56
2021/12/12 06:43:22;;;;;;;9.95;6.15;;;;;;;1.29;87.57;96706.69;4849318;29;20137;-56
2021/12/12 06:45:50;;;;;;;11.73;6.20;;;;;;;0.99;87.95;96715.22;4855595;29;20069;-55
2021/12/12 06:48:19;;;;;;;10.65;6.20;;;;;;;0.86;88.52;96705.75;4841224;29;20050;-57
2021/12/12 06:50:49;;;;;;;9.85;6.00;;;;;;;1.03;87.80;96707.53;4851082;29;20041;-52
2021/12/12 06:53:19;;;;;;;10.77;6.25;;;;;;;0.77;88.42;96706.47;4846318;29;20081;-53
2021/12/12 06:55:47;;;;;;;11.25;6.28;;;;;;;1.04;87.32;96707.28;4846440;29;20046;-50
2021/12/12 06:58:16;;;;;;;10.32;6.47;;;;;;;0.78;88.30;96710.72;4854030;29;20132;-49
2021/12/12 07:00:46;;;;;;;11.02;6.80;;;;;;;1.13;87.78;96716.41;4845848;29;20048;-52
2021/12/12 07:03:16;;;;;;;11.48;6.25;;;;;;;1.04;87.51;96725.94;4847674;29;20045;-57
2021/12/12 07:05:43;;;;;;;11.18;5.97;;;;;;;0.94;87.63;96731.16;4849536;29;20145;-58
2021/12/12 07:08:11;;;;;;;11.48;6.35;;;;;;;0.77;88.83;96723.25;4853640;29;20135;-58
2021/12/12 07:10:42;;;;;;;11.27;5.68;;;;;;;0.64;88.72;96721.78;4855124;29;20473;-59
2021/12/12 07:13:10;;;;;;;10.15;6.50;;;;;;;0.93;87.83;96730.34;4847040;29;20073;-58
2021/12/12 07:15:41;;;;;;;9.65;5.65;;;;;;;0.93;87.26;96733.00;4843374;29;20112;-58
2021/12/12 07:18:12;;;;;;;9.50;5.80;;;;;;;1.09;86.82;96731.31;4853306;29;20559;-58
2021/12/12 07:20:40;;;;;;;9.50;5.75;;;;;;;1.53;84.79;96728.50;4852899;29;20076;-59
2021/12/12 07:23:10;;;;;;;9.80;5.53;;;;;;;1.62;84.56;96734.16;4857594;29;20041;-59
2021/12/12 07:25:40;;;;;;;10.43;5.63;;;;;;;1.55;84.38;96737.03;4840683;29;20046;-58
2021/12/12 07:28:07;;;;;;;10.38;5.80;;;;;;;1.51;83.91;96741.28;4847770;29;20140;-58
2021/12/12 07:30:36;;;;;;;9.52;5.70;;;;;;;1.62;84.25;96758.97;4846018;29;20683;-58
2021/12/12 07:33:04;;;;;;;9.23;5.60;;;;;;;1.19;85.75;96751.13;4840366;29;20409;-59
2021/12/12 07:35:36;;;;;;;8.93;5.80;;;;;;;0.98;85.90;96756.25;4851190;29;20093;-59
2021/12/12 07:38:07;;;;;;;11.27;6.20;;;;;;;1.38;85.39;96763.03;4850850;29;20049;-59
2021/12/12 07:40:35;;;;;;;8.55;5.22;;;;;;;1.02;85.81;96761.88;4854295;29;20427;-59
2021/12/12 07:43:05;;;;;;;9.05;5.65;;;;;;;1.13;85.85;96760.91;4841207;29;20061;-58
2021/12/12 07:45:34;;;;;;;8.63;5.47;;;;;;;1.64;84.29;96761.38;4855035;29;20049;-59
2021/12/12 07:48:06;;;;;;;9.18;5.65;;;;;;;1.68;83.09;96762.47;4844385;29;20068;-60
2021/12/12 07:50:41;;;;;;;9.38;5.72;;;;;;;1.32;84.84;96767.50;4849770;29;20164;-59
2021/12/12 07:53:09;;;;;;;11.25;6.20;;;;;;;0.81;86.24;96758.19;4845989;29;20045;-58
2021/12/12 07:55:37;;;;;;;9.10;5.43;;;;;;;1.09;85.28;96770.47;4851205;29;20468;-59
2021/12/12 07:58:06;;;;;;;8.55;5.43;;;;;;;1.23;85.29;96765.53;4853803;29;20069;-53
2021/12/12 08:00:34;;;;;;;10.60;5.97;;;;;;;1.35;84.21;96772.34;4854087;29;20045;-52
2021/12/12 08:03:03;;;;;;;8.63;5.45;;;;;;;1.38;84.27;96768.38;4847340;29;20045;-49
2021/12/12 08:05:32;;;;;;;9.02;5.80;;;;;;;1.34;84.40;96769.94;4849458;29;20516;-54
2021/12/12 08:08:07;;;;;;;10.73;6.22;;;;;;;1.23;85.62;96770.88;4845892;24;20050;-51
2021/12/12 08:10:35;;;;;;;9.68;5.55;;;;;;;1.16;85.20;96765.75;4834510;29;20050;-53
2021/12/12 08:13:02;;;;;;;9.40;5.88;;;;;;;1.34;85.05;96759.28;4840849;29;20377;-53
2021/12/12 08:15:29;;;;;;;9.07;5.60;;;;;;;1.37;83.91;96761.44;4840310;29;20137;-52
2021/12/12 08:17:59;;;;;;;8.32;5.70;;;;;;;1.27;84.67;96753.31;4835087;29;20039;-54
2021/12/12 08:20:31;;;;;;;7.78;5.15;;;;;;;1.55;83.63;96760.25;4836247;29;20042;-55
2021/12/12 08:22:59;;;;;;;9.13;5.63;;;;;;;1.19;84.82;96761.78;4841450;29;20167;-54
2021/12/12 08:25:27;;;;;;;8.23;5.30;;;;;;;1.49;84.24;96770.06;4835362;29;20520;-51
2021/12/12 08:28:00;;;;;;;7.75;5.13;;;;;;;1.50;82.80;96766.34;4833622;29;20420;-51
2021/12/12 08:30:29;;;;;;;9.00;5.85;;;;;;;1.28;84.13;96774.41;4836638;29;20105;-54
2021/12/12 08:32:57;;;;;;;9.85;6.22;;;;;;;1.32;83.84;96764.03;4842016;29;20045;-55
2021/12/12 08:35:26;;;;;;;9.23;5.63;;;;;;;1.25;83.95;96764.25;4833340;29;20061;-55
2021/12/12 08:37:56;;;;;;;8.57;5.57;;;;;;;1.36;83.96;96759.81;4835982;29;20056;-57
2021/12/12 08:40:29;;;;;;;10.10;5.82;;;;;;;1.63;83.19;96763.25;4833962;29;20061;-58
2021/12/12 08:42:56;;;;;;;9.65;6.03;;;;;;;2.00;81.45;96767.00;4830178;29;20046;-54
2021/12/12 08:45:29;;;;;;;7.68;5.07;;;;;;;1.38;82.62;96768.38;4842196;29;20176;-56
2021/12/12 08:47:58;;;;;;;7.55;4.82;;;;;;;1.27;83.25;96775.47;4843738;29;20060;-53
2021/12/12 08:50:30;;;;;;;8.80;5.43;;;;;;;1.45;82.55;96774.28;4847979;29;20106;-56
2021/12/12 08:52:58;;;;;;;10.73;6.20;;;;;;;1.13;84.06;96767.06;4829580;29;20042;-54
2021/12/12 08:55:34;;;;;;;8.93;5.68;;;;;;;1.47;83.85;96761.53;4835839;29;20046;-58
2021/12/12 08:58:15;;;;;;;10.23;6.10;;;;;;;1.53;82.83;96763.19;4832310;29;20043;-57
2021/12/12 09:00:59;;;;;;;10.30;5.80;;;;;;;1.68;82.30;96764.34;4826200;29;20165;-57
2021/12/12 09:03:52;;;;;;;10.35;6.13;;;;;;;1.75;82.11;96762.25;4839919;29;20427;-51
2021/12/12 09:06:26;;;;;;;9.75;5.40;;;;;;;1.18;83.25;96760.97;4835959;29;20046;-54
2021/12/12 09:08:58;;;;;;;10.45;6.07;;;;;;;1.44;82.87;96755.88;4833737;29;20441;-50
2021/12/12 09:11:44;;;;;;;11.60;6.72;;;;;;;1.60;82.96;96765.63;4846566;29;20400;-55
2021/12/12 09:14:19;;;;;;;9.73;5.78;;;;;;;1.66;82.26;96769.13;4845203;29;20049;-53
2021/12/12 09:16:54;;;;;;;9.55;6.07;;;;;;;1.79;81.73;96766.06;4831558;29;20047;-55
2021/12/12 09:19:45;;;;;;;8.38;5.70;;;;;;;1.73;81.75;96765.19;4834057;29;20062;-53
2021/12/12 09:22:25;;;;;;;10.98;6.53;;;;;;;1.74;81.80;96764.13;4834415;29;20476;-50
2021/12/12 09:25:10;;;;;;;10.30;6.40;;;;;;;1.73;82.27;96775.06;4832311;29;20497;-51
2021/12/12 09:27:48;;;;;;;11.05;7.22;;;;;;;1.70;81.54;96780.91;4837966;29;20453;-53
2021/12/12 09:30:26;;;;;;;10.82;6.40;;;;;;;1.83;81.88;96767.94;4826693;29;20133;-51
2021/12/12 09:33:22;;;;;;;9.77;5.90;;;;;;;1.80;81.38;96770.31;4827238;29;20513;-54
2021/12/12 09:36:01;;;;;;;11.27;6.82;;;;;;;1.83;81.72;96781.28;4830674;29;20062;-54
2021/12/12 09:38:42;;;;;;;11.07;6.22;;;;;;;1.90;81.90;96781.06;4836420;29;20129;-51
2021/12/12 09:41:27;;;;;;;10.43;6.88;;;;;;;2.00;81.13;96777.66;4826355;29;20141;-54
2021/12/12 09:44:18;;;;;;;11.38;6.50;;;;;;;2.09;80.45;96779.59;4840722;29;20049;-56
2021/12/12 09:47:27;;;;;;;10.20;6.25;;;;;;;2.12;80.41;96774.81;4836282;29;20054;-51
2021/12/12 09:53:47;;;;;;;11.25;6.45;;;;;;;2.08;79.31;96779.84;4839495;29;20045;-56
2021/12/12 09:56:27;;;;;;;9.95;6.30;;;;;;;2.10;80.27;96769.72;4834827;29;20056;-53
2021/12/12 09:59:23;;;;;;;9.63;5.45;;;;;;;2.09;79.21;96763.59;4834046;29;20050;-53
2021/12/12 10:02:14;;;;;;;9.98;6.32;;;;;;;2.15;79.63;96760.97;4827851;29;20050;-54
2021/12/12 10:05:10;;;;;;;10.93;6.30;;;;;;;2.37;79.57;96758.94;4841711;29;20070;-52
2021/12/12 10:07:49;;;;;;;9.07;5.90;;;;;;;2.66;78.74;96761.19;4842536;29;20081;-51
2021/12/12 10:10:26;;;;;;;11.80;7.35;;;;;;;2.36;79.55;96762.66;4837543;29;20041;-51
2021/12/12 10:13:20;;;;;;;10.85;6.55;;;;;;;2.30;79.36;96763.69;4840564;29;20919;-54
2021/12/12 10:15:54;;;;;;;;;;;;;;;2.16;80.26;96754.56;4838651;29;20060;-58
2021/12/12 10:18:40;;;;;;;11.60;6.25;;;;;;;2.25;80.29;96761.00;4836065;29;19931;-52
2021/12/12 10:21:21;;;;;;;11.23;6.80;;;;;;;2.41;79.54;96754.69;4835307;29;20140;-54
2021/12/12 10:24:14;;;;;;;10.90;6.18;;;;;;;2.01;80.52;96747.22;4850733;29;20589;-53
2021/12/12 10:26:45;;;;;;;12.38;7.20;;;;;;;2.27;80.08;96740.19;4838884;29;20050;-55
2021/12/12 10:29:18;;;;;;;13.05;7.50;;;;;;;2.20;80.37;96732.41;4854340;29;20088;-52
2021/12/12 10:31:54;;;;;;;13.27;7.32;;;;;;;2.39;80.82;96745.31;4836743;29;20085;-54
2021/12/12 10:34:31;;;;;;;13.30;7.57;;;;;;;2.68;79.64;96741.19;4835361;29;20046;-52
2021/12/12 10:37:25;;;;;;;11.73;7.28;;;;;;;2.72;78.95;96744.13;4835578;29;20064;-54
2021/12/12 10:39:58;;;;;;;11.10;7.10;;;;;;;2.57;79.30;96736.88;4840150;29;20046;-56
2021/12/12 10:42:28;;;;;;;;;;;;;;;2.69;79.64;96733.97;4841743;29;20045;-51
2021/12/12 10:45:00;;;;;;;11.20;7.18;;;;;;;2.73;79.28;96727.03;4840452;29;19935;-50
2021/12/12 10:47:37;;;;;;;12.20;6.83;;;;;;;2.77;79.21;96717.44;4836107;29;20045;-51
2021/12/12 10:50:15;;;;;;;10.30;6.68;;;;;;;2.85;79.43;96721.44;4835285;29;20049;-55
2021/12/12 10:52:43;;;;;;;10.50;6.68;;;;;;;2.98;78.13;96724.41;4823892;29;20050;-55
2021/12/12 10:55:35;;;;;;;12.43;7.38;;;;;;;2.85;78.49;96716.91;4829700;29;20136;-56
2021/12/12 10:58:25;;;;;;;10.48;6.40;;;;;;;2.91;77.95;96718.53;4829499;29;20186;-54
2021/12/12 11:01:10;;;;;;;11.50;6.60;;;;;;;2.85;78.00;96711.56;4826050;29;20058;-53
2021/12/12 11:03:55;;;;;;;9.93;6.03;;;;;;;2.95;78.31;96718.81;4827293;29;20042;-53
2021/12/12 11:06:32;;;;;;;9.25;5.90;;;;;;;3.06;78.22;96722.31;4841152;29;20053;-55
2021/12/12 11:09:13;;;;;;;11.65;6.10;;;;;;;3.20;77.25;96721.53;4832208;29;20046;-55
2021/12/12 11:12:01;;;;;;;10.43;6.30;;;;;;;3.29;77.06;96711.13;4833445;29;20132;-53
2021/12/12 11:14:36;;;;;;;10.23;6.55;;;;;;;3.99;74.72;96722.06;4836904;29;20106;-52
2021/12/12 11:17:19;;;;;;;10.43;5.80;;;;;;;4.89;71.02;96713.19;4828291;29;20069;-53
2021/12/12 11:19:59;;;;;;;8.50;5.40;;;;;;;5.43;68.80;96709.63;4827162;29;20500;-52
2021/12/12 11:22:30;;;;;;;9.45;6.07;;;;;;;5.80;68.13;96709.03;4836331;29;20412;-54
2021/12/12 11:25:23;;;;;;;9.10;5.63;;;;;;;6.67;65.46;96699.31;4832362;29;20549;-56
2021/12/12 11:28:04;;;;;;;9.82;6.40;;;;;;;7.40;62.19;96696.13;4824761;29;20046;-55
2021/12/12 11:30:38;;;;;;;8.40;5.20;;;;;;;6.56;65.14;96698.59;4839352;29;20054;-51
2021/12/12 11:33:11;;;;;;;7.15;4.75;;;;;;;7.36;61.96;96694.31;4831380;29;20081;-56
2021/12/12 11:35:41;;;;;;;6.68;4.75;;;;;;;7.34;62.03;96694.59;4829185;29;20439;-54
2021/12/12 11:38:12;;;;;;;7.28;4.75;;;;;;;8.60;59.54;96687.28;4831973;29;20054;-53
2021/12/12 11:41:04;;;;;;;8.38;4.93;;;;;;;7.45;61.03;96700.63;4827835;29;20050;-54
2021/12/12 11:43:48;;;;;;;6.50;4.68;;;;;;;6.03;64.29;96701.34;4843863;29;20042;-56
2021/12/12 11:46:28;;;;;;;7.15;4.68;;;;;;;5.52;66.64;96693.69;4828654;29;20472;-55
2021/12/12 11:49:06;;;;;;;6.32;4.45;;;;;;;4.58;66.35;96693.75;4841897;29;20389;-54
2021/12/12 11:51:41;;;;;;;7.20;4.63;;;;;;;5.35;66.86;96694.91;4824236;29;20069;-57
2021/12/12 11:54:32;;;;;;;6.10;4.05;;;;;;;5.45;66.89;96706.66;4833751;29;20464;-51
2021/12/12 11:57:13;;;;;;;6.07;4.20;;;;;;;4.22;67.91;96696.56;4837203;29;20066;-53
2021/12/12 11:59:51;;;;;;;6.50;3.90;;;;;;;4.90;66.42;96688.75;4850267;29;20053;-46
2021/12/12 12:02:32;;;;;;;5.47;3.67;;;;;;;4.32;67.05;96693.88;4831189;29;20084;-57
2021/12/12 12:05:13;;;;;;;7.22;4.25;;;;;;;4.58;68.87;96693.75;4831646;29;20527;-55
2021/12/12 12:08:00;;;;;;;6.70;3.75;;;;;;;4.63;69.19;96694.53;4855823;29;20136;-57
2021/12/12 12:11:05;;;;;;;6.13;4.13;;;;;;;4.51;69.25;96690.56;4839123;29;20572;-58
2021/12/12 12:13:42;;;;;;;6.35;3.63;;;;;;;4.65;68.42;96689.72;4848060;29;20506;-65
2021/12/12 12:16:09;;;;;;;5.78;3.85;;;;;;;4.37;69.18;96691.16;4834509;29;20046;-58
2021/12/12 12:18:51;;;;;;;7.65;3.90;;;;;;;4.51;69.45;96687.88;4849782;29;20065;-55
2021/12/12 12:21:28;;;;;;;6.38;3.88;;;;;;;4.02;68.24;96689.38;4838353;29;20054;-46
2021/12/12 12:24:37;;;;;;;6.07;3.30;;;;;;;4.33;70.02;96682.06;4850485;29;20543;-48
2021/12/12 12:27:09;;;;;;;5.50;3.72;;;;;;;4.37;69.47;96685.78;4843300;29;20144;-46